Weather at Palmyra Airstrip

Public forecast

Using degrees Celsius for public forecast. Weather courtesy of forecast.io.

Closest aviation weather report (METAR) to Palmyra Airstrip

Closest report is Mackay Airport, 6.3 nm (11.6 km) ENE. Retrieved 2021/01/23 03:00 UTC (27 minutes ago):

YBMK 230300Z AUTO 13017KT 9999 // SCT045 29/22 Q1010

Closest aviation forecast (TAF) to Palmyra Airstrip

Closest forecast is Hamilton Island Airport, 51.7 nm (95.8 km) N. Retrieved 2021-01-23 00:00 UTC (3 hours ago):

TAF YBHM 222329Z 2300/2312 12018KT 9999 SCT030